Time;durP1;ratioP1;P1;durP2;ratioP2;P2;SDS_P1;SDS_P2;PMS_P1;PMS_P2;Temp;Humidity;BMP_temperature;BMP_pressure;BME280_temperature;BME280_humidity;BME280_pressure;Samples;Min_cycle;Max_cycle;Signal;HPM_P1;HPM_P2
2024/04/21 00:01:42;;;;;;;9.55;4.80;;;;;;;;;;5451017;26;20403;-60
2024/04/21 00:04:09;;;;;;;9.75;4.90;;;;;;;;;;5451068;26;19995;-62
2024/04/21 00:06:34;;;;;;;;;;;;;;;;;;5449628;26;19995;-62
2024/04/21 00:09:00;;;;;;;9.93;4.80;;;;;;;;;;5451819;26;19932;-65
2024/04/21 00:11:25;;;;;;;9.70;4.80;;;;;;;;;;5449614;26;20332;-60
2024/04/21 00:13:51;;;;;;;10.35;4.75;;;;;;;;;;5451863;26;20003;-62
2024/04/21 00:16:16;;;;;;;9.75;4.43;;;;;;;;;;5443681;26;20053;-60
2024/04/21 00:18:42;;;;;;;10.13;4.72;;;;;;;;;;5446493;26;19995;-62
2024/04/21 00:21:07;;;;;;;12.02;4.95;;;;;;;;;;5450134;26;20003;-62
2024/04/21 00:23:36;;;;;;;9.88;4.93;;;;;;;;;;5450966;26;20006;-61
2024/04/21 00:26:02;;;;;;;10.02;4.47;;;;;;;;;;5416081;26;20477;-62
2024/04/21 00:28:29;;;;;;;10.40;4.70;;;;;;;;;;5451095;26;19994;-61
2024/04/21 00:30:55;;;;;;;9.85;4.70;;;;;;;;;;5451662;26;20404;-61
2024/04/21 00:33:20;;;;;;;10.13;4.57;;;;;;;;;;5450970;26;19995;-62
2024/04/21 00:35:46;;;;;;;8.35;4.05;;;;;;;;;;5448801;26;20010;-64
2024/04/21 00:38:12;;;;;;;9.38;4.03;;;;;;;;;;5450711;26;20066;-61
2024/04/21 00:40:37;;;;;;;10.52;4.55;;;;;;;;;;5450743;26;19999;-62
2024/04/21 00:43:04;;;;;;;10.15;4.80;;;;;;;;;;5450596;26;20519;-61
2024/04/21 00:45:30;;;;;;;9.77;4.38;;;;;;;;;;5448387;26;19998;-63
2024/04/21 00:47:56;;;;;;;8.63;4.32;;;;;;;;;;5435280;26;20004;-61
2024/04/21 00:50:22;;;;;;;7.55;3.70;;;;;;;;;;5414627;26;20011;-61
2024/04/21 00:52:48;;;;;;;7.43;3.85;;;;;;;;;;5414922;26;20013;-62
2024/04/21 00:55:14;;;;;;;7.57;3.40;;;;;;;;;;5426573;26;20011;-61
2024/04/21 00:57:39;;;;;;;9.27;3.78;;;;;;;;;;5450672;26;20006;-61
2024/04/21 01:00:05;;;;;;;7.47;3.42;;;;;;;;;;5450450;26;20587;-62
2024/04/21 01:02:31;;;;;;;7.10;3.50;;;;;;;;;;5451113;26;20017;-64
2024/04/21 01:04:58;;;;;;;7.47;3.90;;;;;;;;;;5448492;26;20059;-62
2024/04/21 01:07:23;;;;;;;7.60;3.70;;;;;;;;;;5452837;26;20014;-63
2024/04/21 01:09:49;;;;;;;8.00;3.25;;;;;;;;;;5453341;26;20034;-62
2024/04/21 01:12:14;;;;;;;6.53;3.22;;;;;;;;;;5452127;26;19995;-62
2024/04/21 01:14:40;;;;;;;8.90;3.35;;;;;;;;;;5448085;26;20002;-64
2024/04/21 01:17:05;;;;;;;8.80;3.53;;;;;;;;;;5449748;26;20005;-61
2024/04/21 01:19:31;;;;;;;8.55;3.33;;;;;;;;;;5451920;26;19998;-63
2024/04/21 01:22:16;;;;;;;7.25;3.33;;;;;;;;;;5445482;26;20001;-62
2024/04/21 01:24:42;;;;;;;7.97;3.72;;;;;;;;;;5426629;26;20014;-64
2024/04/21 01:27:07;;;;;;;6.75;3.30;;;;;;;;;;5441847;26;20015;-61
2024/04/21 01:29:33;;;;;;;8.70;3.72;;;;;;;;;;5448788;26;20039;-62
2024/04/21 01:31:58;;;;;;;7.18;3.45;;;;;;;;;;5452141;26;20009;-60
2024/04/21 01:34:24;;;;;;;10.15;4.35;;;;;;;;;;5422634;26;20043;-62
2024/04/21 01:36:49;;;;;;;8.20;3.70;;;;;;;;;;5439095;26;20010;-61
2024/04/21 01:39:15;;;;;;;7.90;3.80;;;;;;;;;;5452627;26;20044;-60
2024/04/21 01:41:40;;;;;;;8.38;3.95;;;;;;;;;;5453111;26;19994;-61
2024/04/21 01:44:06;;;;;;;10.45;3.65;;;;;;;;;;5453595;26;20003;-61
2024/04/21 01:46:31;;;;;;;8.63;4.05;;;;;;;;;;5450732;26;20048;-62
2024/04/21 01:48:57;;;;;;;8.93;3.88;;;;;;;;;;5453067;26;20017;-62
2024/04/21 01:51:22;;;;;;;6.60;3.25;;;;;;;;;;5452826;26;20003;-60
2024/04/21 01:53:48;;;;;;;6.93;3.58;;;;;;;;;;5451557;26;20063;-61
2024/04/21 01:56:13;;;;;;;9.40;4.10;;;;;;;;;;5452607;26;19991;-63
2024/04/21 01:58:39;;;;;;;8.63;3.65;;;;;;;;;;5443926;26;20349;-63
2024/04/21 02:01:04;;;;;;;6.75;3.40;;;;;;;;;;5452545;26;20006;-62
2024/04/21 02:03:30;;;;;;;7.72;4.22;;;;;;;;;;5452832;26;20067;-64
2024/04/21 02:05:55;;;;;;;9.02;3.50;;;;;;;;;;5452538;26;20011;-63
2024/04/21 02:08:21;;;;;;;9.80;4.20;;;;;;;;;;5452590;26;20018;-60
2024/04/21 02:10:46;;;;;;;11.80;4.07;;;;;;;;;;5452485;26;20011;-61
2024/04/21 02:13:12;;;;;;;8.38;4.00;;;;;;;;;;5450513;26;20003;-60
2024/04/21 02:15:37;;;;;;;9.02;4.15;;;;;;;;;;5452109;26;20007;-60
2024/04/21 02:18:03;;;;;;;9.82;3.50;;;;;;;;;;5452356;26;20063;-60
2024/04/21 02:20:29;;;;;;;9.10;4.30;;;;;;;;;;5452817;26;20023;-62
2024/04/21 02:22:54;;;;;;;7.43;3.78;;;;;;;;;;5452511;26;19999;-62
2024/04/21 02:25:20;;;;;;;8.45;3.92;;;;;;;;;;5451933;26;19990;-66
2024/04/21 02:27:45;;;;;;;7.63;3.60;;;;;;;;;;5454506;26;20002;-60
2024/04/21 02:30:11;;;;;;;6.60;3.55;;;;;;;;;;5434400;26;20007;-61
2024/04/21 02:32:37;;;;;;;9.43;4.10;;;;;;;;;;5454362;26;20007;-61
2024/04/21 02:35:03;;;;;;;9.80;3.97;;;;;;;;;;5454249;26;20014;-60
2024/04/21 02:37:29;;;;;;;7.28;3.28;;;;;;;;;;5452831;26;20006;-59
2024/04/21 02:39:54;;;;;;;9.52;4.00;;;;;;;;;;5449444;26;20005;-61
2024/04/21 02:42:20;;;;;;;7.47;3.45;;;;;;;;;;5449629;26;20010;-63
2024/04/21 02:44:45;;;;;;;8.18;3.55;;;;;;;;;;5438504;26;20079;-62
2024/04/21 02:47:11;;;;;;;7.28;3.40;;;;;;;;;;5442726;26;20003;-60
2024/04/21 02:49:36;;;;;;;8.52;3.60;;;;;;;;;;5452475;26;20006;-63
2024/04/21 02:52:02;;;;;;;7.90;3.75;;;;;;;;;;5452976;26;20071;-60
2024/04/21 02:54:27;;;;;;;8.27;3.03;;;;;;;;;;5452835;26;19994;-61
2024/04/21 02:56:53;;;;;;;8.90;3.22;;;;;;;;;;5451785;26;20010;-64
2024/04/21 02:59:18;;;;;;;8.80;3.22;;;;;;;;;;5450122;26;20005;-61
2024/04/21 03:01:45;;;;;;;6.57;2.78;;;;;;;;;;5444345;26;20011;-61
2024/04/21 03:04:11;;;;;;;7.00;3.00;;;;;;;;;;5452074;26;20013;-62
2024/04/21 03:06:36;;;;;;;7.43;3.08;;;;;;;;;;5451658;26;20006;-62
2024/04/21 03:09:02;;;;;;;7.07;2.83;;;;;;;;;;5452113;26;20345;-64
2024/04/21 03:11:28;;;;;;;7.35;3.05;;;;;;;;;;5452164;26;20003;-62
2024/04/21 03:13:53;;;;;;;8.32;2.80;;;;;;;;;;5452294;26;19994;-61
2024/04/21 03:16:19;;;;;;;6.32;2.67;;;;;;;;;;5449207;26;20067;-63
2024/04/21 03:18:44;;;;;;;6.78;2.80;;;;;;;;;;5451853;26;19987;-61
2024/04/21 03:21:10;;;;;;;7.53;3.17;;;;;;;;;;5451625;26;20003;-60
2024/04/21 03:23:35;;;;;;;6.28;2.80;;;;;;;;;;5449583;26;20074;-63
2024/04/21 03:26:01;;;;;;;6.95;3.00;;;;;;;;;;5451599;26;19991;-62
2024/04/21 03:28:26;;;;;;;6.40;2.85;;;;;;;;;;5450778;26;20006;-60
2024/04/21 03:30:58;;;;;;;6.90;3.28;;;;;;;;;;5453933;26;20071;-61
2024/04/21 03:33:24;;;;;;;6.95;3.20;;;;;;;;;;5448298;26;20017;-61
2024/04/21 03:36:07;;;;;;;8.40;3.47;;;;;;;;;;5452640;26;20006;-63
2024/04/21 03:38:32;;;;;;;7.47;2.78;;;;;;;;;;5449622;26;19999;-61
2024/04/21 03:40:58;;;;;;;7.15;2.95;;;;;;;;;;5435199;26;20043;-61
2024/04/21 03:43:24;;;;;;;5.88;2.60;;;;;;;;;;5452305;26;20013;-64
2024/04/21 03:45:49;;;;;;;6.85;2.75;;;;;;;;;;5451353;26;20015;-62
2024/04/21 03:48:15;;;;;;;5.93;2.80;;;;;;;;;;5447752;26;19998;-66
2024/04/21 03:50:41;;;;;;;8.60;2.83;;;;;;;;;;5446413;26;19999;-61
2024/04/21 03:53:08;;;;;;;7.07;3.10;;;;;;;;;;5416367;26;20435;-61
2024/04/21 03:55:33;;;;;;;7.50;3.25;;;;;;;;;;5414788;26;20126;-61
2024/04/21 03:57:59;;;;;;;6.32;3.03;;;;;;;;;;5415460;26;20012;-61
2024/04/21 04:00:25;;;;;;;7.53;3.47;;;;;;;;;;5415259;26;20368;-61
2024/04/21 04:02:50;;;;;;;6.20;3.20;;;;;;;;;;5414697;26;20011;-60
2024/04/21 04:05:16;;;;;;;7.57;3.58;;;;;;;;;;5419826;26;20013;-62
2024/04/21 04:07:42;;;;;;;9.55;4.28;;;;;;;;;;5425060;26;20080;-60
2024/04/21 04:10:07;;;;;;;7.85;3.92;;;;;;;;;;5442684;26;20246;-61
2024/04/21 04:12:41;;;;;;;9.07;3.83;;;;;;;;;;5444449;26;19991;-61
2024/04/21 04:15:07;;;;;;;8.48;3.55;;;;;;;;;;5436377;26;20003;-62
2024/04/21 04:17:32;;;;;;;8.30;3.20;;;;;;;;;;5451483;26;20407;-63
2024/04/21 04:19:58;;;;;;;8.75;3.85;;;;;;;;;;5453821;26;20459;-61
2024/04/21 04:22:23;;;;;;;8.57;3.80;;;;;;;;;;5454010;26;20716;-60
2024/04/21 04:24:49;;;;;;;8.30;3.67;;;;;;;;;;5441987;26;20070;-61
2024/04/21 04:27:14;;;;;;;7.43;3.38;;;;;;;;;;5456088;26;20450;-62
2024/04/21 04:29:40;;;;;;;8.40;3.58;;;;;;;;;;5434506;26;20471;-60
2024/04/21 04:32:05;;;;;;;6.75;3.22;;;;;;;;;;5414760;26;20071;-61
2024/04/21 04:34:31;;;;;;;8.35;3.50;;;;;;;;;;5428498;26;20017;-61
2024/04/21 04:36:56;;;;;;;8.85;4.07;;;;;;;;;;5430149;26;20004;-65
2024/04/21 04:39:22;;;;;;;8.27;3.60;;;;;;;;;;5417134;26;19991;-61
2024/04/21 04:41:47;;;;;;;8.55;3.75;;;;;;;;;;5450215;26;20003;-62
2024/04/21 04:44:13;;;;;;;7.25;3.35;;;;;;;;;;5445007;26;20036;-62
2024/04/21 04:46:38;;;;;;;7.82;3.63;;;;;;;;;;5423669;26;20007;-62
2024/04/21 04:49:04;;;;;;;9.02;3.67;;;;;;;;;;5428904;26;20028;-61
2024/04/21 04:51:29;;;;;;;10.30;4.00;;;;;;;;;;5436503;26;20068;-61
2024/04/21 04:53:55;;;;;;;8.15;3.78;;;;;;;;;;5434165;26;20002;-64
2024/04/21 04:56:20;;;;;;;9.15;3.75;;;;;;;;;;5430473;26;20454;-61
2024/04/21 04:58:46;;;;;;;7.95;3.40;;;;;;;;;;5431089;26;20069;-60
2024/04/21 05:01:12;;;;;;;8.07;3.78;;;;;;;;;;5450178;26;20400;-62
2024/04/21 05:03:37;;;;;;;8.00;4.00;;;;;;;;;;5442832;26;20011;-61
2024/04/21 05:06:03;;;;;;;8.05;3.88;;;;;;;;;;5428228;26;20063;-61
2024/04/21 05:08:28;;;;;;;8.00;3.58;;;;;;;;;;5441254;26;20003;-60
2024/04/21 05:10:54;;;;;;;7.55;3.72;;;;;;;;;;5436140;26;20471;-60
2024/04/21 05:13:19;;;;;;;8.75;3.85;;;;;;;;;;5447046;26;20466;-62
2024/04/21 05:15:46;;;;;;;9.05;3.80;;;;;;;;;;5444941;26;20567;-61
2024/04/21 05:18:11;;;;;;;7.30;3.65;;;;;;;;;;5449590;26;20005;-62
2024/04/21 05:20:37;;;;;;;7.78;3.67;;;;;;;;;;5449851;26;20043;-60
2024/04/21 05:23:03;;;;;;;9.68;3.90;;;;;;;;;;5449769;26;19995;-60
2024/04/21 05:25:28;;;;;;;8.02;3.92;;;;;;;;;;5447479;26;19999;-61
2024/04/21 05:27:54;;;;;;;8.07;3.60;;;;;;;;;;5444302;26;19995;-64
2024/04/21 05:30:19;;;;;;;8.60;3.60;;;;;;;;;;5438774;26;20006;-63
2024/04/21 05:32:45;;;;;;;7.53;3.33;;;;;;;;;;5427961;26;20072;-62
2024/04/21 05:35:10;;;;;;;8.63;3.80;;;;;;;;;;5413856;26;19987;-63
2024/04/21 05:37:36;;;;;;;7.95;3.08;;;;;;;;;;5430131;26;19998;-66
2024/04/21 05:40:01;;;;;;;6.43;3.20;;;;;;;;;;5449722;26;20025;-62
2024/04/21 05:42:27;;;;;;;7.72;3.25;;;;;;;;;;5447083;26;20007;-62
2024/04/21 05:44:52;;;;;;;7.15;3.03;;;;;;;;;;5438744;26;20006;-63
2024/04/21 05:47:18;;;;;;;9.00;3.00;;;;;;;;;;5449128;26;20071;-62
2024/04/21 05:49:43;;;;;;;7.40;3.17;;;;;;;;;;5442141;26;20011;-62
2024/04/21 05:52:11;;;;;;;7.75;3.20;;;;;;;;;;5451477;26;20003;-64
2024/04/21 05:54:37;;;;;;;5.68;2.70;;;;;;;;;;5472711;26;20010;-67
2024/04/21 05:57:02;;;;;;;5.75;2.80;;;;;;;;;;5463659;26;20003;-65
2024/04/21 05:59:28;;;;;;;5.88;2.88;;;;;;;;;;5430907;26;20428;-62
2024/04/21 06:01:53;;;;;;;5.75;2.45;;;;;;;;;;5421094;26;20014;-61
2024/04/21 06:04:19;;;;;;;6.28;2.53;;;;;;;;;;5436493;26;20006;-61
2024/04/21 06:06:44;;;;;;;5.80;2.58;;;;;;;;;;5449520;26;20067;-64
2024/04/21 06:09:10;;;;;;;5.40;2.28;;;;;;;;;;5440934;26;20015;-62
2024/04/21 06:11:35;;;;;;;5.97;2.28;;;;;;;;;;5446235;26;20075;-62
2024/04/21 06:14:07;;;;;;;6.53;2.80;;;;;;;;;;5423333;26;20040;-62
2024/04/21 06:16:33;;;;;;;5.68;2.40;;;;;;;;;;5430365;26;20354;-64
2024/04/21 06:18:58;;;;;;;7.43;2.35;;;;;;;;;;5443929;26;19996;-64
2024/04/21 06:21:24;;;;;;;6.57;2.47;;;;;;;;;;5447362;26;20186;-63
2024/04/21 06:23:49;;;;;;;5.72;2.33;;;;;;;;;;5430427;26;19999;-62
2024/04/21 06:26:15;;;;;;;5.50;2.22;;;;;;;;;;5437287;26;20049;-65
2024/04/21 06:28:40;;;;;;;6.05;2.25;;;;;;;;;;5422781;26;20401;-62
2024/04/21 06:31:07;;;;;;;6.40;2.28;;;;;;;;;;5448139;26;20528;-62
2024/04/21 06:33:32;;;;;;;5.20;2.13;;;;;;;;;;5434536;26;20379;-64
2024/04/21 06:35:58;;;;;;;6.15;2.22;;;;;;;;;;5419411;26;20076;-62
2024/04/21 06:38:24;;;;;;;5.50;2.40;;;;;;;;;;5432415;26;19999;-62
2024/04/21 06:40:49;;;;;;;5.70;2.22;;;;;;;;;;5432458;26;20072;-61
2024/04/21 06:43:15;;;;;;;8.02;2.60;;;;;;;;;;5436633;26;20444;-66
2024/04/21 06:45:47;;;;;;;6.35;2.33;;;;;;;;;;5424583;26;20531;-61
2024/04/21 06:48:13;;;;;;;6.22;2.08;;;;;;;;;;5425686;26;19998;-61
2024/04/21 06:50:38;;;;;;;4.65;1.90;;;;;;;;;;5438045;26;20477;-61
2024/04/21 06:53:04;;;;;;;5.30;1.90;;;;;;;;;;5426217;26;19998;-63
2024/04/21 06:55:29;;;;;;;6.53;2.53;;;;;;;;;;5442238;26;19992;-60
2024/04/21 06:57:55;;;;;;;5.82;2.40;;;;;;;;;;5438104;26;19998;-65
2024/04/21 07:00:21;;;;;;;6.03;2.20;;;;;;;;;;5451163;26;20064;-61
2024/04/21 07:02:46;;;;;;;5.43;1.85;;;;;;;;;;5450732;26;20051;-61
2024/04/21 07:05:12;;;;;;;5.60;1.83;;;;;;;;;;5445823;26;19987;-63
2024/04/21 07:07:37;;;;;;;5.22;2.00;;;;;;;;;;5434739;26;20004;-63
2024/04/21 07:10:03;;;;;;;6.38;2.00;;;;;;;;;;5434144;26;20045;-60
2024/04/21 07:12:28;;;;;;;5.45;2.20;;;;;;;;;;5435599;26;20031;-61
2024/04/21 07:14:54;;;;;;;5.30;2.30;;;;;;;;;;5444136;26;20402;-63
2024/04/21 07:17:20;;;;;;;6.28;2.17;;;;;;;;;;5437026;26;20007;-64
2024/04/21 07:19:45;;;;;;;5.68;2.10;;;;;;;;;;5443539;26;20065;-63
2024/04/21 07:22:11;;;;;;;6.38;2.33;;;;;;;;;;5441343;26;19996;-63
2024/04/21 07:24:36;;;;;;;4.97;2.10;;;;;;;;;;5434588;26;20401;-63
2024/04/21 07:27:02;;;;;;;6.90;2.17;;;;;;;;;;5426012;26;20384;-63
2024/04/21 07:29:27;;;;;;;6.43;1.92;;;;;;;;;;5438991;26;20417;-61
2024/04/21 07:31:54;;;;;;;5.47;2.08;;;;;;;;;;5432167;26;20044;-62
2024/04/21 07:34:20;;;;;;;6.68;2.10;;;;;;;;;;5438144;26;20061;-61
2024/04/21 07:36:45;;;;;;;5.57;2.08;;;;;;;;;;5437409;26;19999;-63
2024/04/21 07:39:11;;;;;;;5.97;1.90;;;;;;;;;;5451560;26;20419;-61
2024/04/21 07:41:39;;;;;;;4.28;1.60;;;;;;;;;;5444763;26;20438;-65
2024/04/21 07:44:05;;;;;;;5.80;2.10;;;;;;;;;;5447904;26;20029;-61
2024/04/21 07:46:30;;;;;;;4.68;1.75;;;;;;;;;;5449599;26;20010;-64
2024/04/21 07:48:56;;;;;;;6.30;2.00;;;;;;;;;;5451859;26;20006;-63
2024/04/21 07:51:21;;;;;;;4.88;1.67;;;;;;;;;;5452209;26;20013;-59
2024/04/21 07:53:47;;;;;;;4.03;1.50;;;;;;;;;;5446521;26;20003;-62
2024/04/21 07:56:12;;;;;;;4.40;1.70;;;;;;;;;;5451121;26;20079;-62
2024/04/21 07:58:38;;;;;;;4.15;1.60;;;;;;;;;;5451173;26;20007;-60
2024/04/21 08:01:04;;;;;;;4.75;1.60;;;;;;;;;;5451571;26;20006;-61
2024/04/21 08:03:30;;;;;;;4.80;1.92;;;;;;;;;;5451137;26;19991;-61
2024/04/21 08:05:55;;;;;;;5.60;1.92;;;;;;;;;;5450671;26;20071;-62
2024/04/21 08:08:21;;;;;;;4.22;1.50;;;;;;;;;;5449093;26;20013;-62
2024/04/21 08:10:53;;;;;;;7.03;1.80;;;;;;;;;;5436258;26;20022;-61
2024/04/21 08:13:19;;;;;;;5.63;2.00;;;;;;;;;;5454578;26;20027;-62
2024/04/21 08:15:44;;;;;;;5.53;2.17;;;;;;;;;;5454541;26;20010;-61
2024/04/21 08:18:10;;;;;;;4.75;1.85;;;;;;;;;;5453321;26;20059;-60
2024/04/21 08:20:37;;;;;;;5.65;2.05;;;;;;;;;;5445965;26;20017;-62
2024/04/21 08:23:02;;;;;;;;;;;;;;;;;;5416876;26;20372;-60
2024/04/21 08:25:28;;;;;;;4.40;1.60;;;;;;;;;;5413887;26;19924;-61
2024/04/21 08:27:53;;;;;;;5.30;1.85;;;;;;;;;;5416036;26;20322;-61
2024/04/21 08:30:19;;;;;;;5.05;1.92;;;;;;;;;;5418101;26;20008;-60
2024/04/21 08:32:45;;;;;;;5.70;1.90;;;;;;;;;;5433551;26;20007;-61
2024/04/21 08:35:11;;;;;;;4.75;1.90;;;;;;;;;;5451186;26;19998;-62
2024/04/21 08:37:36;;;;;;;5.00;2.00;;;;;;;;;;5451381;26;20043;-63
2024/04/21 08:40:02;;;;;;;6.18;2.30;;;;;;;;;;5450447;26;19991;-61
2024/04/21 08:42:33;;;;;;;6.22;2.20;;;;;;;;;;5449281;26;20288;-61
2024/04/21 08:44:59;;;;;;;6.60;2.53;;;;;;;;;;5447552;26;20003;-62
2024/04/21 08:47:25;;;;;;;4.68;2.10;;;;;;;;;;5450394;26;20042;-62
2024/04/21 08:49:53;;;;;;;5.88;2.50;;;;;;;;;;5448381;26;20009;-64
2024/04/21 08:52:19;;;;;;;6.28;2.42;;;;;;;;;;5450415;26;20031;-63
2024/04/21 08:54:45;;;;;;;7.93;2.10;;;;;;;;;;5450573;26;20003;-61
2024/04/21 08:57:12;;;;;;;5.75;2.38;;;;;;;;;;5450206;26;20009;-60
2024/04/21 08:59:40;;;;;;;6.55;2.42;;;;;;;;;;5432874;26;20010;-60
2024/04/21 09:02:07;;;;;;;8.00;2.50;;;;;;;;;;5435968;26;20393;-62
2024/04/21 09:04:33;;;;;;;5.97;2.25;;;;;;;;;;5414363;26;20003;-61
2024/04/21 09:06:59;;;;;;;5.00;1.80;;;;;;;;;;5412441;26;20013;-62
2024/04/21 09:09:24;;;;;;;6.45;2.13;;;;;;;;;;5429191;26;20038;-60
2024/04/21 09:11:50;;;;;;;6.78;2.20;;;;;;;;;;5450291;26;20404;-61
2024/04/21 09:14:15;;;;;;;7.70;2.30;;;;;;;;;;5450443;26;20059;-64
2024/04/21 09:16:41;;;;;;;7.65;2.22;;;;;;;;;;5450505;26;20071;-64
2024/04/21 09:19:06;;;;;;;5.03;2.20;;;;;;;;;;5450295;26;19999;-64
2024/04/21 09:21:32;;;;;;;6.88;2.10;;;;;;;;;;5449210;26;20071;-60
2024/04/21 09:23:58;;;;;;;5.32;2.15;;;;;;;;;;5446389;26;19999;-62
2024/04/21 09:26:23;;;;;;;5.30;2.20;;;;;;;;;;5449185;26;20023;-63
2024/04/21 09:28:49;;;;;;;7.28;2.25;;;;;;;;;;5434587;26;20600;-60
2024/04/21 09:31:15;;;;;;;5.90;2.20;;;;;;;;;;5449761;26;20442;-62
2024/04/21 09:33:40;;;;;;;7.53;2.17;;;;;;;;;;5449660;26;20003;-60
2024/04/21 09:36:06;;;;;;;10.48;2.05;;;;;;;;;;5446463;26;20014;-61
2024/04/21 09:38:33;;;;;;;7.07;2.50;;;;;;;;;;5449184;26;20013;-61
2024/04/21 09:40:59;;;;;;;7.53;2.28;;;;;;;;;;5440559;26;20004;-62
2024/04/21 09:43:27;;;;;;;5.95;2.22;;;;;;;;;;5412832;26;20444;-61
2024/04/21 09:45:53;;;;;;;5.60;2.03;;;;;;;;;;5414053;26;19996;-62
2024/04/21 09:48:20;;;;;;;5.38;1.90;;;;;;;;;;5414528;26;20007;-62
2024/04/21 09:50:45;;;;;;;;;;;;;;;;;;5428948;26;20003;-62
2024/04/21 09:53:11;;;;;;;5.40;2.10;;;;;;;;;;5451675;26;19932;-63
2024/04/21 09:55:37;;;;;;;5.80;1.80;;;;;;;;;;5452565;26;20669;-61
2024/04/21 09:58:03;;;;;;;5.15;2.05;;;;;;;;;;5453086;26;19991;-63
2024/04/21 10:00:30;;;;;;;4.97;1.70;;;;;;;;;;5448873;26;20006;-61
2024/04/21 10:02:57;;;;;;;4.57;1.65;;;;;;;;;;5438759;26;20031;-61
2024/04/21 10:05:25;;;;;;;4.80;1.95;;;;;;;;;;5452926;26;20002;-63
2024/04/21 10:07:50;;;;;;;5.22;2.10;;;;;;;;;;5420382;26;20149;-61
2024/04/21 10:10:20;;;;;;;5.47;2.00;;;;;;;;;;5416243;26;20347;-61
2024/04/21 10:12:46;;;;;;;5.45;1.90;;;;;;;;;;5416858;26;20016;-63
2024/04/21 10:15:12;;;;;;;6.68;1.50;;;;;;;;;;5443501;26;20474;-65
2024/04/21 10:17:37;;;;;;;6.38;1.85;;;;;;;;;;5445658;26;20334;-62
2024/04/21 10:20:05;;;;;;;4.75;1.70;;;;;;;;;;5454827;26;20002;-60
2024/04/21 10:22:31;;;;;;;4.90;2.00;;;;;;;;;;5453907;26;19998;-61
2024/04/21 10:24:56;;;;;;;5.10;1.67;;;;;;;;;;5450091;26;20054;-61
2024/04/21 10:27:22;;;;;;;4.85;1.60;;;;;;;;;;5430500;26;20388;-63
2024/04/21 10:29:47;;;;;;;5.05;1.50;;;;;;;;;;5444621;26;20351;-62
2024/04/21 10:32:14;;;;;;;5.28;1.55;;;;;;;;;;5428901;26;20014;-60
2024/04/21 10:34:40;;;;;;;4.45;1.70;;;;;;;;;;5440193;26;20272;-61
2024/04/21 10:37:12;;;;;;;4.88;1.70;;;;;;;;;;5445761;26;20411;-61
2024/04/21 10:39:37;;;;;;;4.00;1.38;;;;;;;;;;5445940;26;20003;-61
2024/04/21 10:42:03;;;;;;;5.25;1.70;;;;;;;;;;5457566;26;20071;-60
2024/04/21 10:44:29;;;;;;;5.72;1.63;;;;;;;;;;5448570;26;20010;-62
2024/04/21 10:46:54;;;;;;;4.93;1.60;;;;;;;;;;5420078;26;20015;-63
2024/04/21 10:49:20;;;;;;;5.03;1.83;;;;;;;;;;5438840;26;20006;-62
2024/04/21 10:51:46;;;;;;;6.13;1.55;;;;;;;;;;5452754;26;20007;-62
2024/04/21 10:54:12;;;;;;;5.82;2.05;;;;;;;;;;5441399;26;20010;-63
2024/04/21 10:56:38;;;;;;;4.32;1.65;;;;;;;;;;5435453;26;20014;-62
2024/04/21 10:59:05;;;;;;;6.15;2.30;;;;;;;;;;5416783;26;20015;-61
2024/04/21 11:01:30;;;;;;;5.38;2.50;;;;;;;;;;5435407;26;20005;-62
2024/04/21 11:03:57;;;;;;;5.50;2.10;;;;;;;;;;5446670;26;20350;-66
2024/04/21 11:06:23;;;;;;;5.10;1.77;;;;;;;;;;5424172;26;20004;-61
2024/04/21 11:08:48;;;;;;;4.60;1.67;;;;;;;;;;5416318;26;20072;-63
2024/04/21 11:11:16;;;;;;;3.80;1.30;;;;;;;;;;5442325;26;19995;-61
2024/04/21 11:13:41;;;;;;;3.95;1.60;;;;;;;;;;5417582;26;20028;-62
2024/04/21 11:16:11;;;;;;;4.15;1.40;;;;;;;;;;5442625;26;20009;-61
2024/04/21 11:18:36;;;;;;;4.10;1.40;;;;;;;;;;5426042;26;19991;-61
2024/04/21 11:21:02;;;;;;;4.70;1.60;;;;;;;;;;5412844;26;20006;-62
2024/04/21 11:23:27;;;;;;;4.43;1.50;;;;;;;;;;5414510;26;20011;-63
2024/04/21 11:25:53;;;;;;;4.25;1.50;;;;;;;;;;5411626;26;20018;-61
2024/04/21 11:28:20;;;;;;;6.10;1.70;;;;;;;;;;5411973;26;20004;-63
2024/04/21 11:30:45;;;;;;;5.05;1.60;;;;;;;;;;5428187;26;20001;-62
2024/04/21 11:33:12;;;;;;;5.65;1.67;;;;;;;;;;5443661;26;19991;-63
2024/04/21 11:35:37;;;;;;;4.50;1.48;;;;;;;;;;5428430;26;19995;-61
2024/04/21 11:38:03;;;;;;;3.75;1.23;;;;;;;;;;5413040;26;20014;-61
2024/04/21 11:40:28;;;;;;;4.10;1.40;;;;;;;;;;5412736;26;20007;-62
2024/04/21 11:42:56;;;;;;;3.75;1.35;;;;;;;;;;5422891;26;20176;-61
2024/04/21 11:45:28;;;;;;;3.95;1.45;;;;;;;;;;5437449;26;20022;-60
2024/04/21 11:47:57;;;;;;;5.00;1.50;;;;;;;;;;5437072;26;20006;-61
2024/04/21 11:50:26;;;;;;;5.55;1.52;;;;;;;;;;5442812;26;20002;-62
2024/04/21 11:52:51;;;;;;;4.32;1.30;;;;;;;;;;5441011;26;20007;-62
2024/04/21 11:55:17;;;;;;;4.22;1.42;;;;;;;;;;5441165;26;20074;-63
2024/04/21 11:57:42;;;;;;;3.78;1.40;;;;;;;;;;5435841;26;20446;-61
2024/04/21 12:00:08;;;;;;;4.07;1.40;;;;;;;;;;5430888;26;19995;-63
2024/04/21 12:02:34;;;;;;;6.13;1.50;;;;;;;;;;5424374;26;20010;-62
2024/04/21 12:04:59;;;;;;;4.88;1.52;;;;;;;;;;5444155;26;19995;-62
2024/04/21 12:07:25;;;;;;;3.85;1.33;;;;;;;;;;5435878;26;20009;-61
2024/04/21 12:09:50;;;;;;;4.95;1.40;;;;;;;;;;5435325;26;20007;-64
2024/04/21 12:12:16;;;;;;;3.97;1.40;;;;;;;;;;5416384;26;20007;-61
2024/04/21 12:14:41;;;;;;;4.43;1.45;;;;;;;;;;5415839;26;20007;-61
2024/04/21 12:17:08;;;;;;;4.68;1.27;;;;;;;;;;5407497;26;20072;-62
2024/04/21 12:19:34;;;;;;;4.97;1.35;;;;;;;;;;5422335;26;20003;-61
2024/04/21 12:22:00;;;;;;;3.90;1.27;;;;;;;;;;5443606;26;20537;-63
2024/04/21 12:24:25;;;;;;;4.88;1.20;;;;;;;;;;5425921;26;19994;-62
2024/04/21 12:26:51;;;;;;;4.85;1.20;;;;;;;;;;5446167;26;20006;-62
2024/04/21 12:29:16;;;;;;;3.55;1.20;;;;;;;;;;5446138;26;20071;-63
2024/04/21 12:31:42;;;;;;;3.47;1.13;;;;;;;;;;5436445;26;20725;-62
2024/04/21 12:34:07;;;;;;;4.70;1.38;;;;;;;;;;5415439;26;20510;-61
2024/04/21 12:36:33;;;;;;;3.95;1.40;;;;;;;;;;5424094;26;20402;-61
2024/04/21 12:38:59;;;;;;;4.07;1.17;;;;;;;;;;5437216;26;20321;-63
2024/04/21 12:41:25;;;;;;;4.53;1.20;;;;;;;;;;5438364;26;20006;-62
2024/04/21 12:43:50;;;;;;;4.38;1.50;;;;;;;;;;5419657;26;20009;-63
2024/04/21 12:46:16;;;;;;;2.70;1.05;;;;;;;;;;5428356;26;20118;-62
2024/04/21 12:48:41;;;;;;;3.75;1.30;;;;;;;;;;5430116;26;20008;-62
2024/04/21 12:51:07;;;;;;;3.90;1.15;;;;;;;;;;5428051;26;20009;-61
2024/04/21 12:53:32;;;;;;;4.68;1.27;;;;;;;;;;5440096;26;20006;-63
2024/04/21 12:55:58;;;;;;;3.45;1.20;;;;;;;;;;5441809;26;20084;-61
2024/04/21 12:58:24;;;;;;;4.05;1.40;;;;;;;;;;5452949;26;20057;-61
2024/04/21 13:00:50;;;;;;;3.67;1.15;;;;;;;;;;5457016;26;20007;-61
2024/04/21 13:03:16;;;;;;;5.43;1.50;;;;;;;;;;5463226;26;19999;-65
2024/04/21 13:05:41;;;;;;;4.20;1.25;;;;;;;;;;5441319;26;20101;-63
2024/04/21 13:08:07;;;;;;;3.25;1.17;;;;;;;;;;5446231;26;20009;-61
2024/04/21 13:10:33;;;;;;;4.93;1.30;;;;;;;;;;5425214;26;20049;-63
2024/04/21 13:12:59;;;;;;;4.72;1.50;;;;;;;;;;5418913;26;20189;-62
2024/04/21 13:15:26;;;;;;;4.80;1.20;;;;;;;;;;5419702;26;20674;-61
2024/04/21 13:17:52;;;;;;;4.05;1.20;;;;;;;;;;5417991;26;20451;-62
2024/04/21 13:20:18;;;;;;;6.95;1.60;;;;;;;;;;5414903;26;19995;-61
2024/04/21 13:22:43;;;;;;;4.35;1.20;;;;;;;;;;5438445;26;19995;-61
2024/04/21 13:25:09;;;;;;;4.97;1.40;;;;;;;;;;5450094;26;20010;-62
2024/04/21 13:27:36;;;;;;;3.90;1.20;;;;;;;;;;5450773;26;20003;-63
2024/04/21 13:30:02;;;;;;;3.13;1.08;;;;;;;;;;5451184;26;20493;-61
2024/04/21 13:32:28;;;;;;;4.68;1.30;;;;;;;;;;5450599;26;20008;-62
2024/04/21 13:34:53;;;;;;;3.70;1.20;;;;;;;;;;5450428;26;20006;-62
2024/04/21 13:37:19;;;;;;;3.63;1.10;;;;;;;;;;5428272;26;20072;-61
2024/04/21 13:39:44;;;;;;;3.28;1.10;;;;;;;;;;5445934;26;19995;-61
2024/04/21 13:42:10;;;;;;;3.72;1.08;;;;;;;;;;5450382;26;20006;-61
2024/04/21 13:44:35;;;;;;;6.65;1.40;;;;;;;;;;5449775;26;20009;-60
2024/04/21 13:47:02;;;;;;;5.13;1.05;;;;;;;;;;5449964;26;20007;-59
2024/04/21 13:49:27;;;;;;;4.97;1.20;;;;;;;;;;5450299;26;20712;-61
2024/04/21 13:51:53;;;;;;;3.88;1.55;;;;;;;;;;5448009;26;20007;-61
2024/04/21 13:54:19;;;;;;;3.88;0.98;;;;;;;;;;5450084;26;20027;-62
2024/04/21 13:56:44;;;;;;;3.22;1.20;;;;;;;;;;5447752;26;20078;-62
2024/04/21 13:59:10;;;;;;;3.78;1.00;;;;;;;;;;5449782;26;19999;-69
2024/04/21 14:01:35;;;;;;;3.92;1.40;;;;;;;;;;5449252;26;20015;-61
2024/04/21 14:04:03;;;;;;;4.05;1.05;;;;;;;;;;5449208;26;20002;-60
2024/04/21 14:06:29;;;;;;;4.32;1.35;;;;;;;;;;5445787;26;19999;-61
2024/04/21 14:08:55;;;;;;;3.50;1.00;;;;;;;;;;5447992;26;20014;-61
2024/04/21 14:11:21;;;;;;;3.00;1.13;;;;;;;;;;5423077;26;20073;-60
2024/04/21 14:13:46;;;;;;;3.47;1.15;;;;;;;;;;5413003;26;20421;-63
2024/04/21 14:16:12;;;;;;;3.63;1.10;;;;;;;;;;5411212;26;20013;-61
2024/04/21 14:18:37;;;;;;;4.15;1.30;;;;;;;;;;5443528;26;20010;-61
2024/04/21 14:21:03;;;;;;;4.75;1.35;;;;;;;;;;5434411;26;20048;-61
2024/04/21 14:23:29;;;;;;;5.80;1.20;;;;;;;;;;5430186;26;20013;-62
2024/04/21 14:25:54;;;;;;;3.42;1.20;;;;;;;;;;5442204;26;20075;-62
2024/04/21 14:28:20;;;;;;;3.97;1.20;;;;;;;;;;5447512;26;19998;-61
2024/04/21 14:30:45;;;;;;;3.95;1.10;;;;;;;;;;5447594;26;19999;-62
2024/04/21 14:33:11;;;;;;;3.25;1.10;;;;;;;;;;5448603;26;20067;-62
2024/04/21 14:35:36;;;;;;;6.97;1.17;;;;;;;;;;5448238;26;20003;-62